sensor_id;sensor_type;location;lat;lon;timestamp;P1;durP1;ratioP1;P2;durP2;ratioP2
64615;SDS011;51027;42.162;24.754;2022-07-25T00:01:34;23.58;;;13.30;;
64615;SDS011;51027;42.162;24.754;2022-07-25T00:03:59;24.35;;;13.25;;
64615;SDS011;51027;42.162;24.754;2022-07-25T00:06:25;21.17;;;12.43;;
64615;SDS011;51027;42.162;24.754;2022-07-25T00:08:50;22.35;;;12.20;;
64615;SDS011;51027;42.162;24.754;2022-07-25T00:11:16;21.33;;;10.90;;
64615;SDS011;51027;42.162;24.754;2022-07-25T00:13:41;21.67;;;12.18;;
64615;SDS011;51027;42.162;24.754;2022-07-25T00:16:07;21.58;;;11.80;;
64615;SDS011;51027;42.162;24.754;2022-07-25T00:18:35;22.75;;;12.25;;
64615;SDS011;51027;42.162;24.754;2022-07-25T00:21:01;23.02;;;12.13;;
64615;SDS011;51027;42.162;24.754;2022-07-25T00:23:26;24.52;;;13.43;;
64615;SDS011;51027;42.162;24.754;2022-07-25T00:25:52;25.33;;;13.85;;
64615;SDS011;51027;42.162;24.754;2022-07-25T00:28:18;26.50;;;14.35;;
64615;SDS011;51027;42.162;24.754;2022-07-25T00:30:44;23.35;;;14.18;;
64615;SDS011;51027;42.162;24.754;2022-07-25T00:33:09;21.90;;;12.25;;
64615;SDS011;51027;42.162;24.754;2022-07-25T00:35:35;19.80;;;11.88;;
64615;SDS011;51027;42.162;24.754;2022-07-25T00:38:00;21.00;;;11.43;;
64615;SDS011;51027;42.162;24.754;2022-07-25T00:40:26;19.40;;;11.65;;
64615;SDS011;51027;42.162;24.754;2022-07-25T00:42:52;21.55;;;12.23;;
64615;SDS011;51027;42.162;24.754;2022-07-25T00:45:20;24.52;;;12.68;;
64615;SDS011;51027;42.162;24.754;2022-07-25T00:47:46;18.45;;;11.30;;
64615;SDS011;51027;42.162;24.754;2022-07-25T00:50:12;21.63;;;12.43;;
64615;SDS011;51027;42.162;24.754;2022-07-25T00:52:37;21.00;;;11.98;;
64615;SDS011;51027;42.162;24.754;2022-07-25T00:55:03;21.88;;;11.80;;
64615;SDS011;51027;42.162;24.754;2022-07-25T00:57:30;20.48;;;11.10;;
64615;SDS011;51027;42.162;24.754;2022-07-25T00:59:55;19.20;;;10.90;;
64615;SDS011;51027;42.162;24.754;2022-07-25T01:02:21;17.73;;;10.27;;
64615;SDS011;51027;42.162;24.754;2022-07-25T01:04:47;18.75;;;10.88;;
64615;SDS011;51027;42.162;24.754;2022-07-25T01:07:19;19.73;;;11.32;;
64615;SDS011;51027;42.162;24.754;2022-07-25T01:09:45;17.30;;;9.32;;
64615;SDS011;51027;42.162;24.754;2022-07-25T01:12:11;18.63;;;10.25;;
64615;SDS011;51027;42.162;24.754;2022-07-25T01:14:37;19.33;;;10.43;;
64615;SDS011;51027;42.162;24.754;2022-07-25T01:17:03;20.27;;;10.48;;
64615;SDS011;51027;42.162;24.754;2022-07-25T01:19:29;17.33;;;9.80;;
64615;SDS011;51027;42.162;24.754;2022-07-25T01:21:55;17.58;;;9.73;;
64615;SDS011;51027;42.162;24.754;2022-07-25T01:24:20;20.25;;;11.00;;
64615;SDS011;51027;42.162;24.754;2022-07-25T01:26:46;17.92;;;10.15;;
64615;SDS011;51027;42.162;24.754;2022-07-25T01:29:11;18.05;;;10.50;;
64615;SDS011;51027;42.162;24.754;2022-07-25T01:31:37;19.70;;;10.45;;
64615;SDS011;51027;42.162;24.754;2022-07-25T01:34:02;17.27;;;9.70;;
64615;SDS011;51027;42.162;24.754;2022-07-25T01:36:28;17.42;;;9.65;;
64615;SDS011;51027;42.162;24.754;2022-07-25T01:38:53;17.48;;;9.82;;
64615;SDS011;51027;42.162;24.754;2022-07-25T01:41:19;17.50;;;9.10;;
64615;SDS011;51027;42.162;24.754;2022-07-25T01:43:44;19.30;;;10.15;;
64615;SDS011;51027;42.162;24.754;2022-07-25T01:46:10;17.02;;;9.55;;
64615;SDS011;51027;42.162;24.754;2022-07-25T01:48:35;17.80;;;10.27;;
64615;SDS011;51027;42.162;24.754;2022-07-25T01:51:01;18.25;;;10.35;;
64615;SDS011;51027;42.162;24.754;2022-07-25T01:53:26;18.63;;;11.20;;
64615;SDS011;51027;42.162;24.754;2022-07-25T01:55:51;18.67;;;10.40;;
64615;SDS011;51027;42.162;24.754;2022-07-25T01:58:17;19.83;;;10.32;;
64615;SDS011;51027;42.162;24.754;2022-07-25T02:00:42;17.77;;;10.07;;
64615;SDS011;51027;42.162;24.754;2022-07-25T02:03:08;18.45;;;11.10;;
64615;SDS011;51027;42.162;24.754;2022-07-25T02:05:52;19.10;;;10.88;;
64615;SDS011;51027;42.162;24.754;2022-07-25T02:08:17;19.80;;;11.13;;
64615;SDS011;51027;42.162;24.754;2022-07-25T02:10:43;19.70;;;11.05;;
64615;SDS011;51027;42.162;24.754;2022-07-25T02:13:08;19.50;;;10.85;;
64615;SDS011;51027;42.162;24.754;2022-07-25T02:15:34;20.95;;;11.10;;
64615;SDS011;51027;42.162;24.754;2022-07-25T02:18:00;20.38;;;11.07;;
64615;SDS011;51027;42.162;24.754;2022-07-25T02:20:25;23.00;;;11.88;;
64615;SDS011;51027;42.162;24.754;2022-07-25T02:22:50;18.63;;;10.95;;
64615;SDS011;51027;42.162;24.754;2022-07-25T02:25:16;19.58;;;10.73;;
64615;SDS011;51027;42.162;24.754;2022-07-25T02:27:41;19.35;;;10.63;;
64615;SDS011;51027;42.162;24.754;2022-07-25T02:30:07;18.63;;;11.05;;
64615;SDS011;51027;42.162;24.754;2022-07-25T02:32:33;19.13;;;10.88;;
64615;SDS011;51027;42.162;24.754;2022-07-25T02:34:58;18.60;;;11.73;;
64615;SDS011;51027;42.162;24.754;2022-07-25T02:37:24;21.92;;;11.23;;
64615;SDS011;51027;42.162;24.754;2022-07-25T02:39:49;21.52;;;12.07;;
64615;SDS011;51027;42.162;24.754;2022-07-25T02:42:15;22.48;;;12.10;;
64615;SDS011;51027;42.162;24.754;2022-07-25T02:44:40;19.05;;;11.48;;
64615;SDS011;51027;42.162;24.754;2022-07-25T02:47:06;19.88;;;10.85;;
64615;SDS011;51027;42.162;24.754;2022-07-25T02:49:31;18.40;;;10.25;;
64615;SDS011;51027;42.162;24.754;2022-07-25T02:51:57;19.05;;;9.38;;
64615;SDS011;51027;42.162;24.754;2022-07-25T02:54:22;17.52;;;9.88;;
64615;SDS011;51027;42.162;24.754;2022-07-25T02:56:48;17.30;;;9.70;;
64615;SDS011;51027;42.162;24.754;2022-07-25T02:59:13;17.65;;;9.88;;
64615;SDS011;51027;42.162;24.754;2022-07-25T03:01:38;18.75;;;9.45;;
64615;SDS011;51027;42.162;24.754;2022-07-25T03:04:04;19.85;;;9.35;;
64615;SDS011;51027;42.162;24.754;2022-07-25T03:06:29;16.63;;;8.90;;
64615;SDS011;51027;42.162;24.754;2022-07-25T03:08:55;18.85;;;9.48;;
64615;SDS011;51027;42.162;24.754;2022-07-25T03:11:20;16.42;;;8.57;;
64615;SDS011;51027;42.162;24.754;2022-07-25T03:13:46;17.27;;;9.40;;
64615;SDS011;51027;42.162;24.754;2022-07-25T03:16:11;17.92;;;9.30;;
64615;SDS011;51027;42.162;24.754;2022-07-25T03:18:37;17.55;;;9.98;;
64615;SDS011;51027;42.162;24.754;2022-07-25T03:21:02;16.77;;;9.75;;
64615;SDS011;51027;42.162;24.754;2022-07-25T03:23:28;18.35;;;9.57;;
64615;SDS011;51027;42.162;24.754;2022-07-25T03:25:55;18.08;;;10.20;;
64615;SDS011;51027;42.162;24.754;2022-07-25T03:28:21;17.40;;;9.20;;
64615;SDS011;51027;42.162;24.754;2022-07-25T03:30:46;16.85;;;9.20;;
64615;SDS011;51027;42.162;24.754;2022-07-25T03:33:12;18.80;;;10.05;;
64615;SDS011;51027;42.162;24.754;2022-07-25T03:35:37;18.30;;;9.52;;
64615;SDS011;51027;42.162;24.754;2022-07-25T03:38:03;19.00;;;9.27;;
64615;SDS011;51027;42.162;24.754;2022-07-25T03:40:28;17.50;;;9.15;;
64615;SDS011;51027;42.162;24.754;2022-07-25T03:42:53;19.52;;;9.98;;
64615;SDS011;51027;42.162;24.754;2022-07-25T03:45:19;19.83;;;10.68;;
64615;SDS011;51027;42.162;24.754;2022-07-25T03:47:44;18.80;;;9.48;;
64615;SDS011;51027;42.162;24.754;2022-07-25T03:50:10;20.80;;;10.73;;
64615;SDS011;51027;42.162;24.754;2022-07-25T03:52:36;20.75;;;10.80;;
64615;SDS011;51027;42.162;24.754;2022-07-25T03:55:05;19.03;;;10.77;;
64615;SDS011;51027;42.162;24.754;2022-07-25T03:57:32;20.25;;;10.82;;
64615;SDS011;51027;42.162;24.754;2022-07-25T03:59:57;18.55;;;11.20;;
64615;SDS011;51027;42.162;24.754;2022-07-25T04:02:23;23.25;;;14.15;;
64615;SDS011;51027;42.162;24.754;2022-07-25T04:04:48;19.55;;;12.00;;
64615;SDS011;51027;42.162;24.754;2022-07-25T04:07:14;20.05;;;11.98;;
64615;SDS011;51027;42.162;24.754;2022-07-25T04:09:39;19.55;;;10.95;;
64615;SDS011;51027;42.162;24.754;2022-07-25T04:12:04;18.77;;;10.55;;
64615;SDS011;51027;42.162;24.754;2022-07-25T04:14:30;22.23;;;11.93;;
64615;SDS011;51027;42.162;24.754;2022-07-25T04:16:56;19.80;;;10.68;;
64615;SDS011;51027;42.162;24.754;2022-07-25T04:19:21;19.42;;;10.73;;
64615;SDS011;51027;42.162;24.754;2022-07-25T04:21:46;19.80;;;10.65;;
64615;SDS011;51027;42.162;24.754;2022-07-25T04:24:12;19.25;;;10.45;;
64615;SDS011;51027;42.162;24.754;2022-07-25T04:26:37;18.75;;;10.80;;
64615;SDS011;51027;42.162;24.754;2022-07-25T04:29:03;19.85;;;11.18;;
64615;SDS011;51027;42.162;24.754;2022-07-25T04:31:28;19.60;;;10.73;;
64615;SDS011;51027;42.162;24.754;2022-07-25T04:33:54;18.98;;;11.00;;
64615;SDS011;51027;42.162;24.754;2022-07-25T04:36:19;19.67;;;10.90;;
64615;SDS011;51027;42.162;24.754;2022-07-25T04:38:45;20.30;;;10.85;;
64615;SDS011;51027;42.162;24.754;2022-07-25T04:41:11;22.08;;;11.10;;
64615;SDS011;51027;42.162;24.754;2022-07-25T04:43:36;21.27;;;10.38;;
64615;SDS011;51027;42.162;24.754;2022-07-25T04:46:02;18.95;;;10.45;;
64615;SDS011;51027;42.162;24.754;2022-07-25T04:48:27;18.77;;;11.60;;
64615;SDS011;51027;42.162;24.754;2022-07-25T04:50:53;20.40;;;11.20;;
64615;SDS011;51027;42.162;24.754;2022-07-25T04:53:19;19.38;;;10.80;;
64615;SDS011;51027;42.162;24.754;2022-07-25T04:55:44;20.20;;;11.30;;
64615;SDS011;51027;42.162;24.754;2022-07-25T04:58:10;22.73;;;11.40;;
64615;SDS011;51027;42.162;24.754;2022-07-25T05:00:35;20.65;;;11.48;;
64615;SDS011;51027;42.162;24.754;2022-07-25T05:03:01;19.70;;;10.80;;
64615;SDS011;51027;42.162;24.754;2022-07-25T05:05:26;19.98;;;10.65;;
64615;SDS011;51027;42.162;24.754;2022-07-25T05:07:55;19.65;;;10.82;;
64615;SDS011;51027;42.162;24.754;2022-07-25T05:10:23;18.30;;;10.30;;
64615;SDS011;51027;42.162;24.754;2022-07-25T05:12:49;19.52;;;11.55;;
64615;SDS011;51027;42.162;24.754;2022-07-25T05:15:14;20.02;;;11.05;;
64615;SDS011;51027;42.162;24.754;2022-07-25T05:17:40;20.48;;;11.40;;
64615;SDS011;51027;42.162;24.754;2022-07-25T05:20:06;19.73;;;9.80;;
64615;SDS011;51027;42.162;24.754;2022-07-25T05:22:32;18.17;;;10.63;;
64615;SDS011;51027;42.162;24.754;2022-07-25T05:24:58;19.80;;;10.63;;
64615;SDS011;51027;42.162;24.754;2022-07-25T05:27:24;18.67;;;10.85;;
64615;SDS011;51027;42.162;24.754;2022-07-25T05:29:49;19.38;;;11.00;;
64615;SDS011;51027;42.162;24.754;2022-07-25T05:32:15;19.50;;;11.95;;
64615;SDS011;51027;42.162;24.754;2022-07-25T05:34:40;17.75;;;10.65;;
64615;SDS011;51027;42.162;24.754;2022-07-25T05:37:06;19.42;;;10.63;;
64615;SDS011;51027;42.162;24.754;2022-07-25T05:39:31;19.50;;;11.15;;
64615;SDS011;51027;42.162;24.754;2022-07-25T05:41:56;20.17;;;11.18;;
64615;SDS011;51027;42.162;24.754;2022-07-25T05:44:22;21.05;;;11.05;;
64615;SDS011;51027;42.162;24.754;2022-07-25T05:46:47;21.02;;;11.25;;
64615;SDS011;51027;42.162;24.754;2022-07-25T05:49:13;19.58;;;11.05;;
64615;SDS011;51027;42.162;24.754;2022-07-25T05:51:39;21.40;;;11.82;;
64615;SDS011;51027;42.162;24.754;2022-07-25T05:54:05;19.90;;;11.65;;
64615;SDS011;51027;42.162;24.754;2022-07-25T05:56:30;19.92;;;11.75;;
64615;SDS011;51027;42.162;24.754;2022-07-25T05:58:56;23.30;;;12.27;;
64615;SDS011;51027;42.162;24.754;2022-07-25T06:01:21;19.42;;;11.90;;
64615;SDS011;51027;42.162;24.754;2022-07-25T06:03:47;19.67;;;11.23;;
64615;SDS011;51027;42.162;24.754;2022-07-25T06:06:12;20.13;;;12.35;;
64615;SDS011;51027;42.162;24.754;2022-07-25T06:08:38;20.40;;;12.05;;
64615;SDS011;51027;42.162;24.754;2022-07-25T06:11:04;21.13;;;11.75;;
64615;SDS011;51027;42.162;24.754;2022-07-25T06:13:31;20.55;;;11.73;;
64615;SDS011;51027;42.162;24.754;2022-07-25T06:15:57;19.55;;;12.23;;
64615;SDS011;51027;42.162;24.754;2022-07-25T06:18:23;20.73;;;11.60;;
64615;SDS011;51027;42.162;24.754;2022-07-25T06:20:49;20.13;;;11.23;;
64615;SDS011;51027;42.162;24.754;2022-07-25T06:23:15;19.20;;;11.48;;
64615;SDS011;51027;42.162;24.754;2022-07-25T06:25:42;21.02;;;12.05;;
64615;SDS011;51027;42.162;24.754;2022-07-25T06:28:07;21.42;;;11.55;;
64615;SDS011;51027;42.162;24.754;2022-07-25T06:30:33;23.13;;;12.23;;
64615;SDS011;51027;42.162;24.754;2022-07-25T06:32:59;19.15;;;11.75;;
64615;SDS011;51027;42.162;24.754;2022-07-25T06:35:24;21.27;;;12.00;;
64615;SDS011;51027;42.162;24.754;2022-07-25T06:37:50;19.52;;;11.63;;
64615;SDS011;51027;42.162;24.754;2022-07-25T06:40:15;20.58;;;11.77;;
64615;SDS011;51027;42.162;24.754;2022-07-25T06:42:41;21.80;;;11.77;;
64615;SDS011;51027;42.162;24.754;2022-07-25T06:45:08;21.20;;;11.73;;
64615;SDS011;51027;42.162;24.754;2022-07-25T06:47:35;18.42;;;11.07;;
64615;SDS011;51027;42.162;24.754;2022-07-25T06:50:04;20.42;;;11.88;;
64615;SDS011;51027;42.162;24.754;2022-07-25T06:52:30;20.08;;;11.68;;
64615;SDS011;51027;42.162;24.754;2022-07-25T06:54:56;20.73;;;12.75;;
64615;SDS011;51027;42.162;24.754;2022-07-25T06:57:21;21.42;;;11.70;;
64615;SDS011;51027;42.162;24.754;2022-07-25T06:59:47;20.05;;;11.60;;
64615;SDS011;51027;42.162;24.754;2022-07-25T07:02:13;21.20;;;12.77;;
64615;SDS011;51027;42.162;24.754;2022-07-25T07:04:38;21.73;;;11.85;;
64615;SDS011;51027;42.162;24.754;2022-07-25T07:07:04;20.77;;;11.18;;
64615;SDS011;51027;42.162;24.754;2022-07-25T07:09:29;21.88;;;11.77;;
64615;SDS011;51027;42.162;24.754;2022-07-25T07:11:55;22.00;;;12.43;;
64615;SDS011;51027;42.162;24.754;2022-07-25T07:14:20;22.15;;;12.13;;
64615;SDS011;51027;42.162;24.754;2022-07-25T07:16:46;20.02;;;11.45;;
64615;SDS011;51027;42.162;24.754;2022-07-25T07:19:11;19.02;;;10.82;;
64615;SDS011;51027;42.162;24.754;2022-07-25T07:21:38;20.98;;;11.48;;
64615;SDS011;51027;42.162;24.754;2022-07-25T07:24:04;19.92;;;10.73;;
64615;SDS011;51027;42.162;24.754;2022-07-25T07:26:31;19.48;;;11.25;;
64615;SDS011;51027;42.162;24.754;2022-07-25T07:28:57;21.75;;;11.80;;
64615;SDS011;51027;42.162;24.754;2022-07-25T07:31:23;20.08;;;11.63;;
64615;SDS011;51027;42.162;24.754;2022-07-25T07:33:48;18.83;;;11.57;;
64615;SDS011;51027;42.162;24.754;2022-07-25T07:36:14;19.02;;;10.35;;
64615;SDS011;51027;42.162;24.754;2022-07-25T07:38:39;18.13;;;11.18;;
64615;SDS011;51027;42.162;24.754;2022-07-25T07:41:05;20.20;;;10.95;;
64615;SDS011;51027;42.162;24.754;2022-07-25T07:43:31;19.92;;;11.38;;
64615;SDS011;51027;42.162;24.754;2022-07-25T07:45:57;19.10;;;11.27;;
64615;SDS011;51027;42.162;24.754;2022-07-25T07:48:24;19.58;;;10.68;;
64615;SDS011;51027;42.162;24.754;2022-07-25T07:53:19;21.33;;;11.07;;
64615;SDS011;51027;42.162;24.754;2022-07-25T07:55:44;19.42;;;11.05;;
64615;SDS011;51027;42.162;24.754;2022-07-25T07:58:12;19.60;;;11.05;;
64615;SDS011;51027;42.162;24.754;2022-07-25T08:00:40;21.92;;;10.75;;
64615;SDS011;51027;42.162;24.754;2022-07-25T08:03:06;20.65;;;13.23;;
64615;SDS011;51027;42.162;24.754;2022-07-25T08:05:34;19.20;;;11.30;;
64615;SDS011;51027;42.162;24.754;2022-07-25T08:08:02;19.45;;;10.90;;
64615;SDS011;51027;42.162;24.754;2022-07-25T08:10:29;19.10;;;11.52;;
64615;SDS011;51027;42.162;24.754;2022-07-25T08:12:57;19.27;;;10.50;;
64615;SDS011;51027;42.162;24.754;2022-07-25T08:15:24;18.88;;;10.20;;
64615;SDS011;51027;42.162;24.754;2022-07-25T08:17:50;18.98;;;10.27;;
64615;SDS011;51027;42.162;24.754;2022-07-25T08:20:16;18.60;;;10.23;;
64615;SDS011;51027;42.162;24.754;2022-07-25T08:22:43;20.33;;;10.20;;
64615;SDS011;51027;42.162;24.754;2022-07-25T08:25:14;19.45;;;10.88;;
64615;SDS011;51027;42.162;24.754;2022-07-25T08:27:41;18.85;;;10.73;;
64615;SDS011;51027;42.162;24.754;2022-07-25T08:30:08;18.17;;;10.18;;
64615;SDS011;51027;42.162;24.754;2022-07-25T08:32:45;17.75;;;10.20;;
64615;SDS011;51027;42.162;24.754;2022-07-25T08:35:11;19.30;;;9.48;;
64615;SDS011;51027;42.162;24.754;2022-07-25T08:37:37;18.38;;;10.30;;
64615;SDS011;51027;42.162;24.754;2022-07-25T08:40:03;18.77;;;10.23;;
64615;SDS011;51027;42.162;24.754;2022-07-25T08:42:28;21.08;;;10.90;;
64615;SDS011;51027;42.162;24.754;2022-07-25T08:44:58;22.07;;;10.33;;
64615;SDS011;51027;42.162;24.754;2022-07-25T08:47:27;23.85;;;11.13;;
64615;SDS011;51027;42.162;24.754;2022-07-25T08:49:53;18.10;;;10.20;;
64615;SDS011;51027;42.162;24.754;2022-07-25T08:52:20;18.63;;;9.90;;
64615;SDS011;51027;42.162;24.754;2022-07-25T08:54:46;18.33;;;10.80;;
64615;SDS011;51027;42.162;24.754;2022-07-25T08:57:12;18.23;;;10.90;;
64615;SDS011;51027;42.162;24.754;2022-07-25T08:59:38;20.35;;;10.63;;
64615;SDS011;51027;42.162;24.754;2022-07-25T09:02:04;18.13;;;9.73;;
64615;SDS011;51027;42.162;24.754;2022-07-25T09:04:32;19.13;;;10.93;;
64615;SDS011;51027;42.162;24.754;2022-07-25T09:07:00;18.95;;;10.25;;
64615;SDS011;51027;42.162;24.754;2022-07-25T09:09:32;18.40;;;9.90;;
64615;SDS011;51027;42.162;24.754;2022-07-25T09:11:59;15.70;;;8.95;;
64615;SDS011;51027;42.162;24.754;2022-07-25T09:14:25;17.83;;;9.48;;
64615;SDS011;51027;42.162;24.754;2022-07-25T09:16:51;16.73;;;8.77;;
64615;SDS011;51027;42.162;24.754;2022-07-25T09:19:21;16.85;;;8.68;;
64615;SDS011;51027;42.162;24.754;2022-07-25T09:22:02;17.42;;;9.00;;
64615;SDS011;51027;42.162;24.754;2022-07-25T09:24:29;17.23;;;9.48;;
64615;SDS011;51027;42.162;24.754;2022-07-25T09:26:57;17.77;;;9.38;;
64615;SDS011;51027;42.162;24.754;2022-07-25T09:29:28;17.98;;;9.75;;
64615;SDS011;51027;42.162;24.754;2022-07-25T09:31:56;16.95;;;8.85;;
64615;SDS011;51027;42.162;24.754;2022-07-25T09:34:39;17.27;;;9.20;;
64615;SDS011;51027;42.162;24.754;2022-07-25T09:37:07;17.05;;;9.20;;
64615;SDS011;51027;42.162;24.754;2022-07-25T09:39:44;16.88;;;8.80;;
64615;SDS011;51027;42.162;24.754;2022-07-25T09:42:13;19.25;;;9.77;;
64615;SDS011;51027;42.162;24.754;2022-07-25T09:44:42;16.20;;;8.90;;
64615;SDS011;51027;42.162;24.754;2022-07-25T09:47:12;17.02;;;9.45;;
64615;SDS011;51027;42.162;24.754;2022-07-25T09:49:43;15.60;;;8.90;;
64615;SDS011;51027;42.162;24.754;2022-07-25T09:52:09;16.70;;;9.15;;
64615;SDS011;51027;42.162;24.754;2022-07-25T09:54:36;17.70;;;9.60;;
64615;SDS011;51027;42.162;24.754;2022-07-25T09:57:03;17.55;;;9.02;;
64615;SDS011;51027;42.162;24.754;2022-07-25T09:59:28;16.50;;;8.90;;
64615;SDS011;51027;42.162;24.754;2022-07-25T10:02:00;17.35;;;8.93;;
64615;SDS011;51027;42.162;24.754;2022-07-25T10:04:46;17.25;;;9.00;;
64615;SDS011;51027;42.162;24.754;2022-07-25T10:07:20;16.17;;;9.20;;
64615;SDS011;51027;42.162;24.754;2022-07-25T10:09:48;18.30;;;9.82;;
64615;SDS011;51027;42.162;24.754;2022-07-25T10:12:19;16.75;;;9.30;;
64615;SDS011;51027;42.162;24.754;2022-07-25T10:17:39;17.42;;;9.35;;
64615;SDS011;51027;42.162;24.754;2022-07-25T10:20:06;17.23;;;9.13;;
64615;SDS011;51027;42.162;24.754;2022-07-25T10:25:11;18.17;;;9.65;;
64615;SDS011;51027;42.162;24.754;2022-07-25T10:27:44;17.55;;;9.20;;
64615;SDS011;51027;42.162;24.754;2022-07-25T10:30:18;17.75;;;9.77;;
64615;SDS011;51027;42.162;24.754;2022-07-25T10:32:55;17.02;;;9.35;;
64615;SDS011;51027;42.162;24.754;2022-07-25T10:35:21;17.40;;;9.55;;
64615;SDS011;51027;42.162;24.754;2022-07-25T10:37:48;17.27;;;9.98;;
64615;SDS011;51027;42.162;24.754;2022-07-25T10:43:05;17.65;;;9.13;;
64615;SDS011;51027;42.162;24.754;2022-07-25T10:48:08;18.17;;;9.65;;
64615;SDS011;51027;42.162;24.754;2022-07-25T10:50:44;17.38;;;9.52;;
64615;SDS011;51027;42.162;24.754;2022-07-25T10:53:14;17.20;;;10.18;;
64615;SDS011;51027;42.162;24.754;2022-07-25T10:55:40;18.13;;;9.70;;
64615;SDS011;51027;42.162;24.754;2022-07-25T10:58:05;19.05;;;10.70;;
64615;SDS011;51027;42.162;24.754;2022-07-25T11:00:31;19.33;;;10.32;;
64615;SDS011;51027;42.162;24.754;2022-07-25T11:02:58;21.17;;;10.30;;
64615;SDS011;51027;42.162;24.754;2022-07-25T11:05:23;19.42;;;11.55;;
64615;SDS011;51027;42.162;24.754;2022-07-25T11:07:50;19.02;;;11.68;;
64615;SDS011;51027;42.162;24.754;2022-07-25T11:10:24;17.65;;;10.32;;
64615;SDS011;51027;42.162;24.754;2022-07-25T11:12:51;18.10;;;9.93;;
64615;SDS011;51027;42.162;24.754;2022-07-25T11:15:20;17.92;;;10.23;;
64615;SDS011;51027;42.162;24.754;2022-07-25T11:17:51;18.92;;;10.27;;
64615;SDS011;51027;42.162;24.754;2022-07-25T11:20:17;17.35;;;9.48;;
64615;SDS011;51027;42.162;24.754;2022-07-25T11:22:54;18.10;;;10.55;;
64615;SDS011;51027;42.162;24.754;2022-07-25T11:25:21;19.00;;;10.98;;
64615;SDS011;51027;42.162;24.754;2022-07-25T11:27:58;19.00;;;10.82;;
64615;SDS011;51027;42.162;24.754;2022-07-25T11:30:25;17.77;;;10.45;;
64615;SDS011;51027;42.162;24.754;2022-07-25T11:32:56;20.63;;;11.90;;
64615;SDS011;51027;42.162;24.754;2022-07-25T11:35:26;17.17;;;9.77;;
64615;SDS011;51027;42.162;24.754;2022-07-25T11:37:56;18.02;;;9.93;;
64615;SDS011;51027;42.162;24.754;2022-07-25T11:40:25;17.23;;;9.65;;
64615;SDS011;51027;42.162;24.754;2022-07-25T11:42:52;17.90;;;9.75;;
64615;SDS011;51027;42.162;24.754;2022-07-25T11:48:00;18.95;;;9.95;;
64615;SDS011;51027;42.162;24.754;2022-07-25T11:50:38;17.58;;;9.13;;
64615;SDS011;51027;42.162;24.754;2022-07-25T11:53:06;18.13;;;9.48;;
64615;SDS011;51027;42.162;24.754;2022-07-25T11:55:34;16.73;;;9.60;;
64615;SDS011;51027;42.162;24.754;2022-07-25T11:58:04;17.70;;;9.30;;
64615;SDS011;51027;42.162;24.754;2022-07-25T12:00:32;17.67;;;9.65;;
64615;SDS011;51027;42.162;24.754;2022-07-25T12:03:06;17.30;;;10.05;;
64615;SDS011;51027;42.162;24.754;2022-07-25T12:05:40;17.30;;;10.38;;
64615;SDS011;51027;42.162;24.754;2022-07-25T12:08:13;18.95;;;10.07;;
64615;SDS011;51027;42.162;24.754;2022-07-25T12:10:40;17.98;;;10.02;;
64615;SDS011;51027;42.162;24.754;2022-07-25T12:13:20;17.17;;;9.55;;
64615;SDS011;51027;42.162;24.754;2022-07-25T12:18:15;18.77;;;9.68;;
64615;SDS011;51027;42.162;24.754;2022-07-25T12:20:41;17.65;;;9.57;;
64615;SDS011;51027;42.162;24.754;2022-07-25T12:23:08;16.50;;;9.10;;
64615;SDS011;51027;42.162;24.754;2022-07-25T12:25:36;18.67;;;9.30;;
64615;SDS011;51027;42.162;24.754;2022-07-25T12:28:02;16.38;;;9.45;;
64615;SDS011;51027;42.162;24.754;2022-07-25T12:30:29;18.55;;;9.02;;
64615;SDS011;51027;42.162;24.754;2022-07-25T12:32:55;18.90;;;9.77;;
64615;SDS011;51027;42.162;24.754;2022-07-25T12:35:21;18.02;;;9.80;;
64615;SDS011;51027;42.162;24.754;2022-07-25T12:37:47;17.48;;;10.20;;
64615;SDS011;51027;42.162;24.754;2022-07-25T12:40:13;18.38;;;9.55;;
64615;SDS011;51027;42.162;24.754;2022-07-25T12:42:39;17.70;;;9.65;;
64615;SDS011;51027;42.162;24.754;2022-07-25T12:45:05;18.15;;;10.07;;
64615;SDS011;51027;42.162;24.754;2022-07-25T12:47:32;21.33;;;10.63;;
64615;SDS011;51027;42.162;24.754;2022-07-25T12:49:58;19.50;;;10.50;;
64615;SDS011;51027;42.162;24.754;2022-07-25T12:52:24;18.27;;;11.05;;
64615;SDS011;51027;42.162;24.754;2022-07-25T12:54:49;20.25;;;12.40;;
64615;SDS011;51027;42.162;24.754;2022-07-25T12:57:15;19.45;;;11.40;;
64615;SDS011;51027;42.162;24.754;2022-07-25T12:59:41;19.40;;;11.00;;
64615;SDS011;51027;42.162;24.754;2022-07-25T13:02:07;20.50;;;11.18;;
64615;SDS011;51027;42.162;24.754;2022-07-25T13:04:33;19.95;;;11.05;;
64615;SDS011;51027;42.162;24.754;2022-07-25T13:06:59;20.67;;;11.80;;
64615;SDS011;51027;42.162;24.754;2022-07-25T13:09:25;18.40;;;9.90;;
64615;SDS011;51027;42.162;24.754;2022-07-25T13:11:51;18.23;;;10.43;;
64615;SDS011;51027;42.162;24.754;2022-07-25T13:14:17;22.17;;;10.98;;
64615;SDS011;51027;42.162;24.754;2022-07-25T13:16:43;20.48;;;12.68;;
64615;SDS011;51027;42.162;24.754;2022-07-25T13:19:09;21.30;;;11.68;;
64615;SDS011;51027;42.162;24.754;2022-07-25T13:21:35;20.00;;;11.73;;
64615;SDS011;51027;42.162;24.754;2022-07-25T13:24:01;20.70;;;12.05;;
64615;SDS011;51027;42.162;24.754;2022-07-25T13:26:26;19.85;;;12.35;;
64615;SDS011;51027;42.162;24.754;2022-07-25T13:28:52;21.67;;;12.45;;
64615;SDS011;51027;42.162;24.754;2022-07-25T13:31:18;19.95;;;12.35;;
64615;SDS011;51027;42.162;24.754;2022-07-25T13:33:46;20.13;;;12.20;;
64615;SDS011;51027;42.162;24.754;2022-07-25T13:36:11;24.50;;;13.30;;
64615;SDS011;51027;42.162;24.754;2022-07-25T13:38:37;20.48;;;11.82;;
64615;SDS011;51027;42.162;24.754;2022-07-25T13:41:05;20.65;;;11.60;;
64615;SDS011;51027;42.162;24.754;2022-07-25T13:43:32;19.52;;;11.05;;
64615;SDS011;51027;42.162;24.754;2022-07-25T13:45:57;20.40;;;12.20;;
64615;SDS011;51027;42.162;24.754;2022-07-25T13:48:23;20.27;;;12.30;;
64615;SDS011;51027;42.162;24.754;2022-07-25T13:50:49;20.35;;;11.35;;
64615;SDS011;51027;42.162;24.754;2022-07-25T13:53:14;18.85;;;11.60;;
64615;SDS011;51027;42.162;24.754;2022-07-25T13:55:40;18.17;;;11.35;;
64615;SDS011;51027;42.162;24.754;2022-07-25T13:58:06;18.58;;;11.15;;
64615;SDS011;51027;42.162;24.754;2022-07-25T14:00:32;21.08;;;11.02;;
64615;SDS011;51027;42.162;24.754;2022-07-25T14:02:58;19.95;;;11.82;;
64615;SDS011;51027;42.162;24.754;2022-07-25T14:05:23;22.00;;;11.82;;
64615;SDS011;51027;42.162;24.754;2022-07-25T14:07:49;19.55;;;10.95;;
64615;SDS011;51027;42.162;24.754;2022-07-25T14:10:14;17.77;;;10.75;;
64615;SDS011;51027;42.162;24.754;2022-07-25T14:12:40;19.33;;;11.20;;
64615;SDS011;51027;42.162;24.754;2022-07-25T14:15:05;18.75;;;10.73;;
64615;SDS011;51027;42.162;24.754;2022-07-25T14:17:32;17.63;;;10.70;;
64615;SDS011;51027;42.162;24.754;2022-07-25T14:19:58;19.52;;;11.43;;
64615;SDS011;51027;42.162;24.754;2022-07-25T14:22:23;17.48;;;10.23;;
64615;SDS011;51027;42.162;24.754;2022-07-25T14:24:49;18.88;;;11.35;;
64615;SDS011;51027;42.162;24.754;2022-07-25T14:27:15;19.05;;;11.27;;
64615;SDS011;51027;42.162;24.754;2022-07-25T14:29:40;19.35;;;11.25;;